Time;durP1;ratioP1;P1;durP2;ratioP2;P2;SDS_P1;SDS_P2;PMS_P1;PMS_P2;Temp;Humidity;BMP_temperature;BMP_pressure;BME280_temperature;BME280_humidity;BME280_pressure;Samples;Min_cycle;Max_cycle;Signal;HPM_P1;HPM_P2
2022/11/17 00:02:21;;;;;;;;;6.00;3.33;;;;;;;;5055399;28;45440;-88
2022/11/17 00:04:49;;;;;;;;;2.67;1.67;;;;;;;;5057295;28;45559;-87
2022/11/17 00:07:15;;;;;;;;;2.00;2.00;;;;;;;;5019303;28;47152;-89
2022/11/17 00:09:43;;;;;;;;;5.00;1.00;;;;;;;;5037118;28;45394;-89
2022/11/17 00:15:05;;;;;;;;;4.67;2.00;;;;;;;;4975326;28;45718;-88
2022/11/17 00:17:30;;;;;;;;;3.50;1.75;;;;;;;;4977764;28;45590;-88
2022/11/17 00:22:39;;;;;;;;;1.67;1.67;;;;;;;;4972635;28;45549;-87
2022/11/17 00:25:05;;;;;;;;;2.00;1.00;;;;;;;;4965721;28;45524;-88
2022/11/17 00:27:30;;;;;;;;;2.00;2.00;;;;;;;;4972519;28;46822;-88
2022/11/17 00:29:55;;;;;;;;;3.00;3.00;;;;;;;;4976411;28;46168;-88
2022/11/17 00:35:05;;;;;;;;;7.00;2.00;;;;;;;;4973761;28;45757;-85
2022/11/17 00:37:36;;;;;;;;;7.00;1.67;;;;;;;;4989717;28;45479;-89
2022/11/17 00:40:01;;;;;;;;;8.33;2.00;;;;;;;;4985133;28;45512;-90
2022/11/17 00:42:26;;;;;;;;;4.00;2.00;;;;;;;;4983208;28;45506;-89
2022/11/17 00:44:52;;;;;;;;;5.33;2.67;;;;;;;;4992324;28;45468;-87
2022/11/17 00:47:17;;;;;;;;;2.33;1.33;;;;;;;;4985991;28;46512;-88
2022/11/17 00:49:42;;;;;;;;;5.33;2.00;;;;;;;;4976373;28;45458;-87
2022/11/17 00:52:08;;;;;;;;;3.33;1.67;;;;;;;;5036583;28;45624;-87
2022/11/17 00:54:34;;;;;;;;;7.67;1.33;;;;;;;;5039855;28;45502;-88
2022/11/17 00:56:59;;;;;;;;;6.33;1.00;;;;;;;;5050774;28;46233;-87
2022/11/17 00:59:25;;;;;;;;;2.67;2.00;;;;;;;;5038264;28;45712;-86
2022/11/17 01:01:50;;;;;;;;;3.00;2.00;;;;;;;;5035307;28;45744;-88
2022/11/17 01:04:15;;;;;;;;;2.25;0.50;;;;;;;;5052456;28;45640;-88
2022/11/17 01:06:45;;;;;;;;;2.67;1.00;;;;;;;;5051375;28;45412;-88
2022/11/17 01:09:28;;;;;;;;;2.00;1.00;;;;;;;;5049290;28;45465;-87
2022/11/17 01:11:54;;;;;;;;;3.00;1.00;;;;;;;;5050345;28;45416;-85
2022/11/17 01:14:24;;;;;;;;;2.75;1.25;;;;;;;;5048886;28;45536;-87
2022/11/17 01:16:49;;;;;;;;;1.00;0.00;;;;;;;;5054269;28;45619;-88
2022/11/17 01:19:14;;;;;;;;;4.67;2.00;;;;;;;;5036945;28;46060;-88
2022/11/17 01:21:40;;;;;;;;;1.25;1.00;;;;;;;;5053529;28;45824;-87
2022/11/17 01:24:05;;;;;;;;;2.25;1.00;;;;;;;;5053393;28;45520;-90
2022/11/17 01:26:32;;;;;;;;;2.00;1.67;;;;;;;;5048720;28;45497;-88
2022/11/17 01:28:58;;;;;;;;;1.75;1.75;;;;;;;;5045624;28;45519;-85
2022/11/17 01:31:29;;;;;;;;;0.00;0.00;;;;;;;;5041805;28;45593;-86
2022/11/17 01:33:55;;;;;;;;;0.00;0.00;;;;;;;;5036777;28;45600;-86
2022/11/17 01:36:28;;;;;;;;;1.00;1.00;;;;;;;;5038872;28;46634;-89
2022/11/17 01:38:53;;;;;;;;;1.00;1.00;;;;;;;;5037206;28;46002;-88
2022/11/17 01:41:23;;;;;;;;;0.50;0.00;;;;;;;;5028168;28;45684;-87
2022/11/17 01:43:49;;;;;;;;;0.00;0.00;;;;;;;;5041208;28;45573;-87
2022/11/17 01:46:32;;;;;;;;;1.25;0.25;;;;;;;;5058311;28;45416;-87
2022/11/17 01:49:04;;;;;;;;;2.25;0.00;;;;;;;;5057352;28;45560;-86
2022/11/17 01:51:30;;;;;;;;;1.25;0.00;;;;;;;;5035977;28;45535;-87
2022/11/17 01:53:56;;;;;;;;;0.25;0.00;;;;;;;;5045939;28;45586;-88
2022/11/17 01:56:24;;;;;;;;;0.75;0.75;;;;;;;;5054617;28;45742;-87
2022/11/17 01:58:53;;;;;;;;;0.00;0.00;;;;;;;;5039609;28;46231;-89
2022/11/17 02:01:18;;;;;;;;;1.50;0.00;;;;;;;;5036186;28;45920;-87
2022/11/17 02:03:47;;;;;;;;;0.75;0.00;;;;;;;;5054723;28;45485;-87
2022/11/17 02:06:12;;;;;;;;;3.25;0.00;;;;;;;;5037554;28;47405;-88
2022/11/17 02:08:38;;;;;;;;;1.00;1.00;;;;;;;;5038567;28;46066;-87
2022/11/17 02:11:07;;;;;;;;;0.00;0.00;;;;;;;;5052245;28;45535;-85
2022/11/17 02:13:34;;;;;;;;;0.00;0.00;;;;;;;;5021572;28;45494;-86
2022/11/17 02:15:59;;;;;;;;;1.00;0.00;;;;;;;;5021069;28;46279;-87
2022/11/17 02:18:25;;;;;;;;;2.00;0.00;;;;;;;;5041537;28;45466;-87
2022/11/17 02:21:09;;;;;;;;;1.00;0.00;;;;;;;;5042216;28;45651;-87
2022/11/17 02:23:53;;;;;;;;;1.50;0.00;;;;;;;;5039246;28;45454;-86
2022/11/17 02:26:24;;;;;;;;;1.33;1.00;;;;;;;;5057088;28;45431;-88
2022/11/17 02:29:08;;;;;;;;;0.00;0.00;;;;;;;;5039423;28;45369;-87
2022/11/17 02:31:50;;;;;;;;;0.25;0.00;;;;;;;;5023161;28;46817;-85
2022/11/17 02:34:25;;;;;;;;;1.00;0.00;;;;;;;;5035666;28;45340;-86
2022/11/17 02:37:13;;;;;;;;;0.00;0.00;;;;;;;;5019626;28;45788;-87
2022/11/17 02:39:59;;;;;;;;;1.67;0.00;;;;;;;;5052012;28;45539;-87
2022/11/17 02:44:02;;;;;;;;;0.00;0.00;;;;;;;;5055948;28;45617;-88
2022/11/17 02:45:17;;;;;;;;;0.00;0.00;;;;;;;;5054550;28;45657;-88
2022/11/17 02:47:45;;;;;;;;;0.75;0.00;;;;;;;;5057206;28;45514;-88
2022/11/17 02:50:18;;;;;;;;;0.00;0.00;;;;;;;;5035671;28;45814;-87
2022/11/17 02:52:44;;;;;;;;;0.00;0.00;;;;;;;;5049888;28;45772;-88
2022/11/17 02:55:10;;;;;;;;;0.75;0.00;;;;;;;;5048312;28;45569;-87
2022/11/17 02:57:36;;;;;;;;;2.67;0.00;;;;;;;;5046311;28;47055;-87
2022/11/17 03:00:12;;;;;;;;;0.00;0.00;;;;;;;;5041329;28;45430;-87
2022/11/17 03:02:43;;;;;;;;;0.67;0.00;;;;;;;;5037667;28;45342;-87
2022/11/17 03:05:15;;;;;;;;;0.00;0.00;;;;;;;;5038009;28;45675;-86
2022/11/17 03:07:59;;;;;;;;;0.00;0.00;;;;;;;;5017565;28;46319;-87
2022/11/17 03:10:38;;;;;;;;;1.00;0.00;;;;;;;;5037961;28;45637;-87
2022/11/17 03:13:09;;;;;;;;;0.00;0.00;;;;;;;;5047457;28;45316;-85
2022/11/17 03:15:52;;;;;;;;;0.00;0.00;;;;;;;;5038388;28;45453;-88
2022/11/17 03:18:22;;;;;;;;;0.00;0.00;;;;;;;;5037152;28;45565;-88
2022/11/17 03:20:59;;;;;;;;;0.00;0.00;;;;;;;;5037358;28;45327;-89
2022/11/17 03:23:32;;;;;;;;;1.75;0.00;;;;;;;;5053644;28;45567;-88
2022/11/17 03:25:58;;;;;;;;;0.00;0.00;;;;;;;;5047892;28;45939;-88
2022/11/17 03:28:27;;;;;;;;;1.00;0.00;;;;;;;;5048362;28;46515;-87
2022/11/17 03:30:52;;;;;;;;;0.00;0.00;;;;;;;;5052540;28;45528;-86
2022/11/17 03:33:20;;;;;;;;;0.00;0.00;;;;;;;;5021561;28;45905;-87
2022/11/17 03:35:50;;;;;;;;;0.00;0.00;;;;;;;;5046320;28;45466;-87
2022/11/17 03:38:17;;;;;;;;;0.00;0.00;;;;;;;;5056041;28;47501;-87
2022/11/17 03:40:45;;;;;;;;;0.00;0.00;;;;;;;;5053700;28;45429;-86
2022/11/17 03:43:11;;;;;;;;;0.00;0.00;;;;;;;;5047068;28;45454;-86
2022/11/17 03:45:38;;;;;;;;;0.67;0.00;;;;;;;;5037448;28;45458;-86
2022/11/17 03:48:13;;;;;;;;;0.00;0.00;;;;;;;;5046706;28;47065;-86
2022/11/17 03:50:47;;;;;;;;;0.00;0.00;;;;;;;;5039370;28;45721;-86
2022/11/17 03:53:12;;;;;;;;;0.00;0.00;;;;;;;;5054229;28;45362;-86
2022/11/17 03:55:46;;;;;;;;;0.75;0.00;;;;;;;;5056264;28;45533;-86
2022/11/17 03:58:15;;;;;;;;;0.00;0.00;;;;;;;;5051735;28;47160;-86
2022/11/17 04:00:40;;;;;;;;;0.00;0.00;;;;;;;;5044239;28;45442;-86
2022/11/17 04:03:06;;;;;;;;;0.00;0.00;;;;;;;;5054344;28;45431;-86
2022/11/17 04:05:31;;;;;;;;;0.00;0.00;;;;;;;;5055678;28;45472;-86
2022/11/17 04:07:56;;;;;;;;;0.00;0.00;;;;;;;;5054706;28;46454;-86
2022/11/17 04:10:24;;;;;;;;;0.00;0.00;;;;;;;;5051011;28;45453;-85
2022/11/17 04:18:18;;;;;;;;;0.00;0.00;;;;;;;;5042932;28;45627;-85
2022/11/17 04:20:44;;;;;;;;;0.00;0.00;;;;;;;;5039086;28;45384;-86
2022/11/17 04:23:11;;;;;;;;;0.00;0.00;;;;;;;;5033620;28;45390;-86
2022/11/17 04:28:38;;;;;;;;;0.67;0.00;;;;;;;;5031824;28;45492;-86
2022/11/17 04:31:04;;;;;;;;;0.00;0.00;;;;;;;;5046224;28;45624;-85
2022/11/17 04:33:29;;;;;;;;;0.00;0.00;;;;;;;;5045748;28;45537;-85
2022/11/17 04:35:55;;;;;;;;;0.00;0.00;;;;;;;;5043696;28;45395;-85
2022/11/17 04:38:21;;;;;;;;;0.00;0.00;;;;;;;;5048405;28;45619;-84
2022/11/17 04:43:30;;;;;;;;;0.00;0.00;;;;;;;;5041068;28;45631;-85
2022/11/17 04:45:59;;;;;;;;;0.00;0.00;;;;;;;;5037782;28;45525;-84
2022/11/17 04:48:24;;;;;;;;;0.00;0.00;;;;;;;;5048585;28;46606;-83
2022/11/17 04:50:53;;;;;;;;;0.00;0.00;;;;;;;;5052419;28;45509;-85
2022/11/17 04:53:18;;;;;;;;;0.00;0.00;;;;;;;;5040453;28;45492;-85
2022/11/17 04:55:44;;;;;;;;;0.00;0.00;;;;;;;;5043156;28;46059;-85
2022/11/17 04:58:09;;;;;;;;;0.00;0.00;;;;;;;;5025612;28;48115;-85
2022/11/17 05:00:34;;;;;;;;;0.00;0.00;;;;;;;;5048422;28;45511;-84
2022/11/17 05:02:59;;;;;;;;;0.00;0.00;;;;;;;;5040711;28;45551;-85
2022/11/17 05:05:25;;;;;;;;;0.00;0.00;;;;;;;;5039828;28;45469;-86
2022/11/17 05:07:50;;;;;;;;;0.00;0.00;;;;;;;;5031563;28;47987;-85
2022/11/17 05:10:15;;;;;;;;;0.00;0.00;;;;;;;;5039970;28;45660;-84
2022/11/17 05:18:32;;;;;;;;;0.00;0.00;;;;;;;;4925913;28;45826;-86
2022/11/17 05:21:04;;;;;;;;;0.00;0.00;;;;;;;;4935298;28;45489;-86
2022/11/17 05:26:13;;;;;;;;;0.00;0.00;;;;;;;;4928662;28;45594;-84
2022/11/17 05:28:38;;;;;;;;;0.00;0.00;;;;;;;;4918220;28;46374;-86
2022/11/17 05:31:04;;;;;;;;;0.00;0.00;;;;;;;;4928274;28;46131;-85
2022/11/17 05:33:29;;;;;;;;;0.00;0.00;;;;;;;;4917910;28;45412;-84
2022/11/17 05:35:54;;;;;;;;;0.00;0.00;;;;;;;;4932897;28;45542;-86
2022/11/17 05:38:19;;;;;;;;;0.33;0.00;;;;;;;;4920115;28;47312;-85
2022/11/17 05:40:45;;;;;;;;;0.00;0.00;;;;;;;;4928223;28;45558;-86
2022/11/17 05:43:10;;;;;;;;;2.67;0.00;;;;;;;;4923578;28;45522;-85
2022/11/17 05:45:35;;;;;;;;;0.00;0.00;;;;;;;;4919019;28;45554;-86
2022/11/17 05:48:00;;;;;;;;;0.00;0.00;;;;;;;;4929819;28;47173;-85
2022/11/17 05:50:26;;;;;;;;;0.00;0.00;;;;;;;;4922198;28;45441;-87
2022/11/17 05:52:53;;;;;;;;;0.00;0.00;;;;;;;;4942562;28;45499;-85
2022/11/17 05:55:19;;;;;;;;;0.00;0.00;;;;;;;;5001201;28;45521;-85
2022/11/17 05:57:45;;;;;;;;;0.33;0.00;;;;;;;;5016134;28;46967;-87
2022/11/17 06:00:16;;;;;;;;;0.00;0.00;;;;;;;;5040432;28;45371;-86
2022/11/17 06:02:45;;;;;;;;;0.00;0.00;;;;;;;;5030553;28;45857;-92
2022/11/17 06:05:11;;;;;;;;;0.00;0.00;;;;;;;;5022122;28;45562;-88
2022/11/17 06:07:36;;;;;;;;;0.00;0.00;;;;;;;;5034990;28;47866;-88
2022/11/17 06:10:02;;;;;;;;;0.00;0.00;;;;;;;;5021900;28;46090;-90
2022/11/17 06:12:27;;;;;;;;;0.00;0.00;;;;;;;;5020254;28;45966;-86
2022/11/17 06:14:53;;;;;;;;;1.00;0.00;;;;;;;;5044120;28;45575;-84
2022/11/17 06:17:20;;;;;;;;;0.00;0.00;;;;;;;;5048071;28;45522;-87
2022/11/17 06:19:49;;;;;;;;;0.00;0.00;;;;;;;;5035009;28;45481;-87
2022/11/17 06:22:15;;;;;;;;;0.00;0.00;;;;;;;;5033445;28;45524;-85
2022/11/17 06:24:44;;;;;;;;;0.00;0.00;;;;;;;;5018171;28;45490;-85
2022/11/17 06:27:10;;;;;;;;;0.00;0.00;;;;;;;;5036075;28;46611;-85
2022/11/17 06:29:36;;;;;;;;;1.00;0.00;;;;;;;;5018762;28;45494;-85
2022/11/17 06:32:01;;;;;;;;;0.00;0.00;;;;;;;;5036563;28;45347;-87
2022/11/17 06:34:26;;;;;;;;;0.00;0.00;;;;;;;;5019232;28;45440;-89
2022/11/17 06:36:52;;;;;;;;;0.00;0.00;;;;;;;;5019675;28;47453;-87
2022/11/17 06:39:17;;;;;;;;;0.00;0.00;;;;;;;;5041149;28;45423;-84
2022/11/17 06:41:43;;;;;;;;;0.00;0.00;;;;;;;;5037399;28;45697;-88
2022/11/17 06:44:08;;;;;;;;;0.67;0.00;;;;;;;;5038275;28;45363;-86
2022/11/17 06:46:36;;;;;;;;;2.00;0.00;;;;;;;;5036262;28;47223;-86
2022/11/17 06:49:03;;;;;;;;;0.33;0.00;;;;;;;;5036262;28;45566;-88
2022/11/17 06:51:28;;;;;;;;;0.00;0.00;;;;;;;;5036214;28;45588;-89
2022/11/17 06:54:17;;;;;;;;;0.00;0.00;;;;;;;;5038235;28;45490;-88
2022/11/17 06:56:48;;;;;;;;;0.00;0.00;;;;;;;;5018649;28;47707;-86
2022/11/17 06:59:14;;;;;;;;;0.00;0.00;;;;;;;;5038111;28;45408;-89
2022/11/17 07:01:40;;;;;;;;;2.00;0.00;;;;;;;;5039114;28;45493;-89
2022/11/17 07:04:06;;;;;;;;;0.00;0.00;;;;;;;;5020288;28;45549;-87
2022/11/17 07:06:34;;;;;;;;;0.00;0.00;;;;;;;;5037251;28;45874;-87
2022/11/17 07:08:59;;;;;;;;;0.00;0.00;;;;;;;;5037175;28;45376;-87
2022/11/17 07:11:24;;;;;;;;;0.67;0.33;;;;;;;;5043420;28;45548;-88
2022/11/17 07:13:50;;;;;;;;;0.33;0.00;;;;;;;;5021563;28;45700;-88
2022/11/17 07:16:16;;;;;;;;;1.67;0.33;;;;;;;;5018508;28;47909;-87
2022/11/17 07:18:41;;;;;;;;;0.33;0.00;;;;;;;;5042543;28;45568;-90
2022/11/17 07:21:09;;;;;;;;;2.00;0.00;;;;;;;;5018977;28;45454;-88
2022/11/17 07:23:37;;;;;;;;;1.67;1.67;;;;;;;;5041548;28;45492;-89
2022/11/17 07:26:02;;;;;;;;;2.00;0.33;;;;;;;;5057701;28;46417;-89
2022/11/17 07:28:28;;;;;;;;;2.00;0.33;;;;;;;;5033436;28;45371;-89
2022/11/17 07:30:54;;;;;;;;;1.00;1.00;;;;;;;;5019273;28;45542;-88
2022/11/17 07:33:19;;;;;;;;;1.33;0.67;;;;;;;;5051432;28;45296;-89
2022/11/17 07:35:45;;;;;;;;;0.00;0.00;;;;;;;;5019397;28;47012;-88
2022/11/17 07:38:10;;;;;;;;;2.00;0.00;;;;;;;;5017896;28;45567;-89
2022/11/17 07:40:35;;;;;;;;;0.33;0.33;;;;;;;;5054305;28;45595;-87
2022/11/17 07:43:01;;;;;;;;;1.00;1.00;;;;;;;;5056039;28;45633;-86
2022/11/17 07:48:17;;;;;;;;;0.33;0.33;;;;;;;;5039031;28;45457;-90
2022/11/17 07:50:42;;;;;;;;;0.00;0.00;;;;;;;;5019752;28;45441;-91
2022/11/17 07:54:01;;;;;;;;;0.33;0.00;;;;;;;;5040707;28;45525;-89
2022/11/17 07:57:04;;;;;;;;;1.00;0.00;;;;;;;;4926783;28;48246;-90
2022/11/17 07:59:36;;;;;;;;;1.00;0.67;;;;;;;;4967251;22;45672;-90
2022/11/17 08:02:01;;;;;;;;;1.33;0.00;;;;;;;;5019118;28;45438;-83
2022/11/17 08:04:26;;;;;;;;;0.67;0.00;;;;;;;;5037055;28;45526;-81
2022/11/17 08:06:52;;;;;;;;;0.67;0.00;;;;;;;;5036821;28;46349;-81
2022/11/17 08:09:17;;;;;;;;;1.33;0.00;;;;;;;;5036929;28;45534;-81
2022/11/17 08:11:42;;;;;;;;;0.67;0.00;;;;;;;;5037310;28;45411;-84
2022/11/17 08:14:08;;;;;;;;;0.67;0.33;;;;;;;;5019300;28;45487;-82
2022/11/17 08:16:33;;;;;;;;;0.00;0.00;;;;;;;;5038462;28;47317;-83
2022/11/17 08:18:58;;;;;;;;;0.33;0.00;;;;;;;;5056550;28;45427;-83
2022/11/17 08:21:24;;;;;;;;;0.00;0.00;;;;;;;;5057006;28;45439;-82
2022/11/17 08:23:56;;;;;;;;;0.00;0.00;;;;;;;;5039064;28;45452;-84
2022/11/17 08:26:24;;;;;;;;;2.50;0.00;;;;;;;;5055808;28;45795;-82
2022/11/17 08:28:52;;;;;;;;;0.00;0.00;;;;;;;;5036175;28;45438;-85
2022/11/17 08:31:17;;;;;;;;;0.67;0.67;;;;;;;;5036672;28;45423;-85
2022/11/17 08:33:42;;;;;;;;;0.00;0.00;;;;;;;;5018387;28;45604;-83
2022/11/17 08:36:08;;;;;;;;;1.67;0.67;;;;;;;;5036600;28;46220;-82
2022/11/17 08:38:34;;;;;;;;;0.33;0.00;;;;;;;;5054243;28;45864;-84
2022/11/17 08:41:01;;;;;;;;;1.00;1.00;;;;;;;;5057009;28;45668;-86
2022/11/17 08:46:33;;;;;;;;;0.00;0.00;;;;;;;;5055606;28;45482;-87
2022/11/17 08:48:59;;;;;;;;;0.67;0.00;;;;;;;;5036095;28;45541;-86
2022/11/17 08:54:59;;;;;;;;;0.00;0.00;;;;;;;;5038528;28;45731;-87
2022/11/17 09:03:09;;;;;;;;;0.00;0.00;;;;;;;;5235044;22;45512;-84
2022/11/17 09:06:13;;;;;;;;;1.00;0.00;;;;;;;;5055263;28;45507;-85
2022/11/17 09:08:39;;;;;;;;;0.75;0.00;;;;;;;;5014641;22;45433;-83
2022/11/17 09:11:05;;;;;;;;;0.50;0.00;;;;;;;;5055793;28;45359;-83
2022/11/17 09:13:37;;;;;;;;;1.67;1.00;;;;;;;;5050557;28;45337;-83
2022/11/17 09:16:03;;;;;;;;;0.25;0.00;;;;;;;;5062765;28;45397;-83
2022/11/17 09:18:28;;;;;;;;;0.67;0.00;;;;;;;;5076306;28;46643;-83
2022/11/17 09:21:09;;;;;;;;;1.00;0.00;;;;;;;;5057900;28;45569;-83
2022/11/17 09:23:34;;;;;;;;;0.75;0.00;;;;;;;;5076447;28;45555;-82
2022/11/17 09:26:03;;;;;;;;;0.50;0.00;;;;;;;;5063093;28;45482;-82
2022/11/17 09:28:28;;;;;;;;;2.00;0.00;;;;;;;;5028900;28;48110;-82
2022/11/17 09:30:54;;;;;;;;;3.75;1.00;;;;;;;;5054970;28;45359;-83
2022/11/17 09:33:19;;;;;;;;;3.25;0.00;;;;;;;;5054629;28;45515;-83
2022/11/17 09:35:47;;;;;;;;;0.50;0.50;;;;;;;;5055496;28;45606;-84
2022/11/17 09:38:12;;;;;;;;;0.75;0.75;;;;;;;;5041011;28;45456;-86
2022/11/17 09:46:27;;;;;;;;;1.00;0.50;;;;;;;;5515720;23;47228;-86
2022/11/17 09:49:05;;;;;;;;;2.00;0.00;;;;;;;;4865721;29;47189;-87
2022/11/17 10:00:58;;;;;;;;;0.00;0.00;;;;;;;;4889189;29;45588;-88
2022/11/17 10:06:32;;;;;;;;;1.25;1.25;;;;;;;;4888803;29;45552;-90
2022/11/17 10:09:06;;;;;;;;;1.50;1.00;;;;;;;;4882809;29;45912;-86
2022/11/17 10:11:32;;;;;;;;;2.00;0.00;;;;;;;;4880026;29;46272;-85
2022/11/17 10:21:46;;;;;;;;;0.50;0.50;;;;;;;;5186858;23;45548;-86
2022/11/17 10:38:12;;;;;;;;;;;;;;;;;;;;;
2022/11/17 10:41:26;;;;;;;;;0.25;0.25;;;;;;;;4852629;29;62864;-83
2022/11/17 10:43:55;;;;;;;;;2.25;0.00;;;;;;;;4899099;28;46469;-87
2022/11/17 10:46:22;;;;;;;;;0.00;0.00;;;;;;;;4891066;28;45505;-83
2022/11/17 10:48:59;;;;;;;;;0.25;0.25;;;;;;;;4921984;28;45469;-84
2022/11/17 10:51:31;;;;;;;;;0.00;0.00;;;;;;;;4906939;28;45485;-83
2022/11/17 10:54:02;;;;;;;;;0.50;0.00;;;;;;;;4914964;28;46509;-84
2022/11/17 11:11:40;;;;;;;;;0.00;0.00;;;;;;;;4891075;29;45366;-93
2022/11/17 11:17:13;;;;;;;;;2.00;0.50;;;;;;;;4931162;23;45276;-86
2022/11/17 11:19:40;;;;;;;;;3.50;1.00;;;;;;;;4882719;29;45491;-86
2022/11/17 11:22:22;;;;;;;;;0.50;0.50;;;;;;;;4882493;29;45671;-86
2022/11/17 11:24:50;;;;;;;;;0.00;0.00;;;;;;;;4882392;29;45550;-86
2022/11/17 11:27:15;;;;;;;;;1.75;0.00;;;;;;;;4882083;29;45772;-85
2022/11/17 11:29:55;;;;;;;;;3.75;0.00;;;;;;;;4882000;29;45409;-85
2022/11/17 11:32:30;;;;;;;;;0.50;0.00;;;;;;;;4882479;29;45666;-85
2022/11/17 11:35:14;;;;;;;;;0.50;0.50;;;;;;;;4880447;29;45559;-85
2022/11/17 11:37:46;;;;;;;;;1.75;0.50;;;;;;;;4881211;29;45453;-85
2022/11/17 11:40:23;;;;;;;;;0.00;0.00;;;;;;;;4881806;29;45389;-85
2022/11/17 11:42:51;;;;;;;;;0.00;0.00;;;;;;;;4882113;29;45391;-86
2022/11/17 11:45:19;;;;;;;;;0.00;0.00;;;;;;;;4881932;29;45856;-85
2022/11/17 11:47:50;;;;;;;;;0.00;0.00;;;;;;;;4879903;29;47689;-85
2022/11/17 11:50:20;;;;;;;;;0.00;0.00;;;;;;;;4879816;29;45741;-84
2022/11/17 11:52:50;;;;;;;;;0.00;0.00;;;;;;;;4877397;29;45584;-85
2022/11/17 11:55:20;;;;;;;;;0.00;0.00;;;;;;;;4877312;29;45792;-85
2022/11/17 11:57:49;;;;;;;;;0.00;0.00;;;;;;;;4873581;29;46319;-79
2022/11/17 12:00:17;;;;;;;;;0.00;0.00;;;;;;;;4862689;29;45381;-85
2022/11/17 12:02:51;;;;;;;;;2.00;0.00;;;;;;;;4874843;29;45464;-82
2022/11/17 12:05:28;;;;;;;;;0.00;0.00;;;;;;;;4883240;29;45500;-81
2022/11/17 12:08:11;;;;;;;;;1.50;0.00;;;;;;;;4881199;29;45547;-87
2022/11/17 12:10:43;;;;;;;;;2.00;0.00;;;;;;;;4879741;29;45637;-86
2022/11/17 12:13:12;;;;;;;;;2.00;0.00;;;;;;;;4880823;29;45500;-87
2022/11/17 12:15:37;;;;;;;;;1.50;0.00;;;;;;;;4882151;29;45401;-87
2022/11/17 12:18:14;;;;;;;;;0.00;0.00;;;;;;;;4880514;29;45501;-87
2022/11/17 12:21:00;;;;;;;;;0.00;0.00;;;;;;;;4881525;29;45552;-88
2022/11/17 12:23:36;;;;;;;;;0.00;0.00;;;;;;;;4870598;29;45634;-87
2022/11/17 12:26:04;;;;;;;;;0.25;0.25;;;;;;;;4881140;29;45397;-87
2022/11/17 12:28:40;;;;;;;;;0.00;0.00;;;;;;;;4881759;29;45447;-86
2022/11/17 12:31:09;;;;;;;;;0.25;0.00;;;;;;;;4880737;29;45551;-86
2022/11/17 12:33:53;;;;;;;;;0.50;0.00;;;;;;;;4882351;29;45336;-87
2022/11/17 12:36:28;;;;;;;;;0.00;0.00;;;;;;;;4882947;29;45477;-86
2022/11/17 12:38:54;;;;;;;;;0.00;0.00;;;;;;;;4880722;29;47041;-86
2022/11/17 12:41:38;;;;;;;;;0.50;0.00;;;;;;;;4881539;29;45387;-87
2022/11/17 12:44:22;;;;;;;;;0.00;0.00;;;;;;;;4881419;29;45638;-85
2022/11/17 12:46:48;;;;;;;;;0.00;0.00;;;;;;;;4881084;29;45519;-86
2022/11/17 12:49:20;;;;;;;;;0.00;0.00;;;;;;;;4881091;29;46656;-86
2022/11/17 12:51:55;;;;;;;;;0.00;0.00;;;;;;;;4880459;29;45502;-86
2022/11/17 12:54:32;;;;;;;;;0.00;0.00;;;;;;;;4880059;29;45507;-85
2022/11/17 12:57:12;;;;;;;;;0.00;0.00;;;;;;;;4881570;29;45518;-87
2022/11/17 12:59:58;;;;;;;;;0.50;0.50;;;;;;;;4881140;29;46026;-85
2022/11/17 13:02:41;;;;;;;;;0.00;0.00;;;;;;;;4873182;29;45524;-85
2022/11/17 13:05:06;;;;;;;;;1.00;0.00;;;;;;;;4879755;29;45390;-86
2022/11/17 13:07:32;;;;;;;;;1.00;0.00;;;;;;;;4880893;29;45432;-86
2022/11/17 13:09:58;;;;;;;;;0.00;0.00;;;;;;;;4880178;29;45808;-88
2022/11/17 13:12:31;;;;;;;;;0.75;0.00;;;;;;;;4880303;29;45740;-87
2022/11/17 13:15:22;;;;;;;;;1.00;0.00;;;;;;;;4880956;29;45365;-88
2022/11/17 13:18:22;;;;;;;;;2.00;0.00;;;;;;;;4880204;29;45474;-84
2022/11/17 13:20:48;;;;;;;;;1.50;0.00;;;;;;;;4879849;29;46149;-86
2022/11/17 13:23:47;;;;;;;;;0.00;0.00;;;;;;;;4882104;29;45735;-87
2022/11/17 13:26:53;;;;;;;;;;;;;;;;;;;;;
2022/11/17 13:29:20;;;;;;;;;0.00;0.00;;;;;;;;4877505;29;62290;-85
2022/11/17 13:35:16;;;;;;;;;1.00;0.00;;;;;;;;4883421;29;45470;-89
2022/11/17 13:37:41;;;;;;;;;1.25;0.00;;;;;;;;4883063;29;45622;-86
2022/11/17 13:40:20;;;;;;;;;0.00;0.00;;;;;;;;4878042;29;45731;-82
2022/11/17 13:42:45;;;;;;;;;0.00;0.00;;;;;;;;4882582;29;45435;-80
2022/11/17 13:45:13;;;;;;;;;0.00;0.00;;;;;;;;4883078;29;45321;-82
2022/11/17 13:47:38;;;;;;;;;0.00;0.00;;;;;;;;4883169;29;45339;-82
2022/11/17 13:50:21;;;;;;;;;0.00;0.00;;;;;;;;4883814;29;45562;-82
2022/11/17 13:52:51;;;;;;;;;0.50;0.00;;;;;;;;4883152;29;46247;-83
2022/11/17 13:55:18;;;;;;;;;0.25;0.00;;;;;;;;4883600;29;45463;-83
2022/11/17 13:57:53;;;;;;;;;0.00;0.00;;;;;;;;4883497;29;45501;-83
2022/11/17 14:00:18;;;;;;;;;0.50;0.00;;;;;;;;4883466;29;45733;-83
2022/11/17 14:02:51;;;;;;;;;0.75;0.00;;;;;;;;4883294;29;46349;-83
2022/11/17 14:05:17;;;;;;;;;0.00;0.00;;;;;;;;4882610;29;45583;-83
2022/11/17 14:07:43;;;;;;;;;1.00;0.00;;;;;;;;4883364;29;45387;-83
2022/11/17 14:10:11;;;;;;;;;0.00;0.00;;;;;;;;4866680;29;45462;-83
2022/11/17 14:12:37;;;;;;;;;0.00;0.00;;;;;;;;4883254;29;46413;-83
2022/11/17 14:15:11;;;;;;;;;0.00;0.00;;;;;;;;4883048;29;45506;-83
2022/11/17 14:17:36;;;;;;;;;0.00;0.00;;;;;;;;4883086;29;45501;-83
2022/11/17 14:20:19;;;;;;;;;0.00;0.00;;;;;;;;4883145;29;45433;-83
2022/11/17 14:23:02;;;;;;;;;0.25;0.25;;;;;;;;4883153;29;45499;-83
2022/11/17 14:25:29;;;;;;;;;0.00;0.00;;;;;;;;4882333;29;45386;-83
2022/11/17 14:27:54;;;;;;;;;0.00;0.00;;;;;;;;4882750;29;45588;-83
2022/11/17 14:30:19;;;;;;;;;1.00;1.00;;;;;;;;4883104;29;45916;-83
2022/11/17 14:32:45;;;;;;;;;0.00;0.00;;;;;;;;4883074;29;45423;-83
2022/11/17 14:35:13;;;;;;;;;0.00;0.00;;;;;;;;4882242;29;45575;-83
2022/11/17 14:37:38;;;;;;;;;0.00;0.00;;;;;;;;4866050;29;45440;-80
2022/11/17 14:40:06;;;;;;;;;0.00;0.00;;;;;;;;4883314;29;45463;-83
2022/11/17 14:42:31;;;;;;;;;0.00;0.00;;;;;;;;4882076;29;46099;-83
2022/11/17 14:45:00;;;;;;;;;1.25;0.25;;;;;;;;4883303;29;45551;-83
2022/11/17 14:47:25;;;;;;;;;1.00;0.00;;;;;;;;5201825;23;45497;-84
2022/11/17 14:49:50;;;;;;;;;1.00;0.00;;;;;;;;5080011;23;45739;-83
2022/11/17 14:52:15;;;;;;;;;0.00;0.00;;;;;;;;4905731;28;46245;-84
2022/11/17 14:54:41;;;;;;;;;3.00;0.00;;;;;;;;4892753;29;45638;-82
2022/11/17 14:57:09;;;;;;;;;0.00;0.00;;;;;;;;4892665;29;45419;-80
2022/11/17 14:59:34;;;;;;;;;0.00;0.00;;;;;;;;4916708;28;45513;-82
2022/11/17 15:02:00;;;;;;;;;0.00;0.00;;;;;;;;4905123;28;45360;-83
2022/11/17 15:04:25;;;;;;;;;0.00;0.00;;;;;;;;4893120;29;45794;-84
2022/11/17 15:06:50;;;;;;;;;0.00;0.00;;;;;;;;4899263;29;45389;-84
2022/11/17 15:09:15;;;;;;;;;0.00;0.00;;;;;;;;4900341;28;45807;-85
2022/11/17 15:11:41;;;;;;;;;0.50;0.00;;;;;;;;4898913;28;45737;-84
2022/11/17 15:14:06;;;;;;;;;0.00;0.00;;;;;;;;4897384;28;45380;-84
2022/11/17 15:16:32;;;;;;;;;0.00;0.00;;;;;;;;4898847;28;45474;-84
2022/11/17 15:18:57;;;;;;;;;1.25;0.00;;;;;;;;4907462;28;45471;-85
2022/11/17 15:21:22;;;;;;;;;0.00;0.00;;;;;;;;4916005;28;46452;-83
2022/11/17 15:23:48;;;;;;;;;0.00;0.00;;;;;;;;4903745;28;45637;-83
2022/11/17 15:26:14;;;;;;;;;1.00;0.00;;;;;;;;4913320;28;45547;-82
2022/11/17 15:28:40;;;;;;;;;2.00;1.00;;;;;;;;4910314;28;45536;-85
2022/11/17 15:31:12;;;;;;;;;0.25;0.00;;;;;;;;4906100;28;46263;-83
2022/11/17 15:33:41;;;;;;;;;0.50;0.00;;;;;;;;4915620;28;45849;-82
2022/11/17 15:36:08;;;;;;;;;0.00;0.00;;;;;;;;4888993;28;45557;-82
2022/11/17 15:38:34;;;;;;;;;1.50;0.00;;;;;;;;4893903;29;45478;-82
2022/11/17 15:40:59;;;;;;;;;1.00;1.00;;;;;;;;4894900;28;46009;-84
2022/11/17 15:43:25;;;;;;;;;2.00;1.00;;;;;;;;4903727;28;45379;-89
2022/11/17 15:45:50;;;;;;;;;1.00;0.00;;;;;;;;4902773;28;45512;-88
2022/11/17 15:48:16;;;;;;;;;0.00;0.00;;;;;;;;4901441;28;45465;-86
2022/11/17 15:50:42;;;;;;;;;0.00;0.00;;;;;;;;4909948;28;46575;-86
2022/11/17 15:53:07;;;;;;;;;0.00;0.00;;;;;;;;4904954;28;45329;-88
2022/11/17 15:55:34;;;;;;;;;0.00;0.00;;;;;;;;4916709;28;45402;-88
2022/11/17 15:57:59;;;;;;;;;0.00;0.00;;;;;;;;4905757;28;45776;-88
2022/11/17 16:00:24;;;;;;;;;0.00;0.00;;;;;;;;4892681;28;48594;-89
2022/11/17 16:02:50;;;;;;;;;1.00;1.00;;;;;;;;4909366;28;45476;-90
2022/11/17 16:05:15;;;;;;;;;0.00;0.00;;;;;;;;4914678;28;45366;-88
2022/11/17 16:07:56;;;;;;;;;0.00;0.00;;;;;;;;4908747;28;45439;-92
2022/11/17 16:10:21;;;;;;;;;0.00;0.00;;;;;;;;4917596;28;45378;-92
2022/11/17 16:12:48;;;;;;;;;1.00;0.00;;;;;;;;4908745;28;45502;-88
2022/11/17 16:15:13;;;;;;;;;0.00;0.00;;;;;;;;4901629;28;45519;-94
2022/11/17 16:17:39;;;;;;;;;0.50;0.00;;;;;;;;4901441;28;45503;-88
2022/11/17 16:20:04;;;;;;;;;0.00;0.00;;;;;;;;4914053;28;45410;-89
2022/11/17 16:22:29;;;;;;;;;1.00;0.00;;;;;;;;4908373;28;45431;-93
2022/11/17 16:24:55;;;;;;;;;0.00;0.00;;;;;;;;4890640;29;45657;-90
2022/11/17 16:27:20;;;;;;;;;0.00;0.00;;;;;;;;4897297;28;45496;-90
2022/11/17 16:29:45;;;;;;;;;0.00;0.00;;;;;;;;4906117;28;46174;-90
2022/11/17 16:32:10;;;;;;;;;0.00;0.00;;;;;;;;4912899;28;45478;-93
2022/11/17 16:34:37;;;;;;;;;0.00;0.00;;;;;;;;4901607;29;45451;-94
2022/11/17 16:37:02;;;;;;;;;1.00;0.00;;;;;;;;4900454;28;45565;-91
2022/11/17 16:39:27;;;;;;;;;0.00;0.00;;;;;;;;4917369;28;45379;-92
2022/11/17 16:41:54;;;;;;;;;0.00;0.00;;;;;;;;4903747;28;45507;-92
2022/11/17 16:44:19;;;;;;;;;1.50;1.00;;;;;;;;4912544;28;45634;-91